Albatros — DITX — position and weather

sailwx.info

Track history (hours):
 
Tides and Currents Weather Stations Pressure Air Temp Water Temp Dewpoint Dewpoint Depression Visibility Wind Speed Wind Dir Waves Ship Positions

Albatros

Last reported at 2015-Jan-24 14:26 UTC. Time now 2015-Jan-31 14:43 UTC.
Position N 54°31' E 013°10'.

Length 16 m.

MMSI: 211226200.

Date/timePositionNaut miles runAvg speedWind from/ knotsBaromVisibWave heightAir tempDewpointWater temp
2015-Jan-24 14:26N 54°31' E 013°10'2 2.8
2015-Jan-24 13:33N 54°33' E 013°09'6 5.8
2015-Jan-24 12:33N 54°39' E 013°13'7 6.7
2015-Jan-24 11:33N 54°41' E 013°23'0 0.5
2015-Jan-24 10:33N 54°42' E 013°24'1 1.1
2015-Jan-24 09:33N 54°42' E 013°22'3 3.1
2015-Jan-24 08:33N 54°41' E 013°17'4 4.2
2015-Jan-24 07:33N 54°39' E 013°10'6 5.7
2015-Jan-24 06:33N 54°33' E 013°08'3 2.5
2015-Jan-24 05:33N 54°31' E 013°10'  
Track history (hours):
 
Tides and Currents Weather Stations Pressure Air Temp Water Temp Dewpoint Dewpoint Depression Visibility Wind Speed Wind Dir Waves Ship Positions

Albatros

Last reported at 2015-Jan-24 14:26 UTC. Time now 2015-Jan-31 14:43 UTC.
Position N 54°31' E 013°10'.

Length 16 m.

MMSI: 211226200.

Date/timePositionNaut miles runAvg speedWind from/ knotsBaromVisibWave heightAir tempDewpointWater temp
2015-Jan-24 14:26N 54°31' E 013°10'2 2.8
2015-Jan-24 13:33N 54°33' E 013°09'6 5.8
2015-Jan-24 12:33N 54°39' E 013°13'7 6.7
2015-Jan-24 11:33N 54°41' E 013°23'0 0.5
2015-Jan-24 10:33N 54°42' E 013°24'1 1.1
2015-Jan-24 09:33N 54°42' E 013°22'3 3.1
2015-Jan-24 08:33N 54°41' E 013°17'4 4.2
2015-Jan-24 07:33N 54°39' E 013°10'6 5.7
2015-Jan-24 06:33N 54°33' E 013°08'3 2.5
2015-Jan-24 05:33N 54°31' E 013°10'  

Dump ship's entire track history